Time;durP1;ratioP1;P1;durP2;ratioP2;P2;SDS_P1;SDS_P2;PMS_P1;PMS_P2;Temp;Humidity;BMP_temperature;BMP_pressure;BME280_temperature;BME280_humidity;BME280_pressure;Samples;Min_cycle;Max_cycle;Signal;HPM_P1;HPM_P2
2021/12/01 00:01:05;;;;;;;48.28;19.45;;;;;;;;;;5075283;28;20043;-82
2021/12/01 00:03:31;;;;;;;46.45;17.67;;;;;;;;;;5092251;28;20043;-82
2021/12/01 00:05:57;;;;;;;48.03;20.38;;;;;;;;;;5109168;28;20031;-82
2021/12/01 00:08:23;;;;;;;43.45;19.58;;;;;;;;;;5126024;27;20542;-82
2021/12/01 00:10:49;;;;;;;40.00;19.67;;;;;;;;;;5091666;28;20116;-82
2021/12/01 00:13:17;;;;;;;45.42;19.25;;;;;;;;;;5108899;28;20047;-83
2021/12/01 00:15:44;;;;;;;44.45;19.23;;;;;;;;;;5108809;28;20042;-82
2021/12/01 00:18:11;;;;;;;42.72;18.33;;;;;;;;;;5108862;28;20042;-82
2021/12/01 00:20:38;;;;;;;34.22;18.33;;;;;;;;;;5108355;28;20036;-82
2021/12/01 00:23:04;;;;;;;38.45;18.90;;;;;;;;;;5091657;28;20407;-81
2021/12/01 00:25:32;;;;;;;35.97;17.83;;;;;;;;;;5107848;28;20038;-82
2021/12/01 00:27:59;;;;;;;37.88;18.20;;;;;;;;;;5108547;28;20055;-82
2021/12/01 00:30:25;;;;;;;37.08;18.05;;;;;;;;;;5108046;28;20043;-82
2021/12/01 00:32:54;;;;;;;33.20;16.40;;;;;;;;;;5095536;28;20420;-82
2021/12/01 00:35:20;;;;;;;34.80;15.57;;;;;;;;;;5090699;28;20398;-82
2021/12/01 00:37:46;;;;;;;36.13;16.42;;;;;;;;;;5091109;28;20046;-82
2021/12/01 00:40:13;;;;;;;32.53;15.70;;;;;;;;;;5107875;28;20071;-83
2021/12/01 00:42:40;;;;;;;32.50;15.43;;;;;;;;;;5108515;28;20108;-82
2021/12/01 00:45:11;;;;;;;32.00;15.55;;;;;;;;;;5108486;28;20032;-82
2021/12/01 00:47:45;;;;;;;31.15;14.05;;;;;;;;;;5108342;28;20044;-82
2021/12/01 00:50:17;;;;;;;26.95;14.07;;;;;;;;;;5107721;28;20047;-78
2021/12/01 00:52:44;;;;;;;29.50;13.25;;;;;;;;;;5109501;28;20126;-79
2021/12/01 00:55:10;;;;;;;29.20;13.48;;;;;;;;;;5111963;28;20562;-78
2021/12/01 00:57:36;;;;;;;30.00;13.00;;;;;;;;;;5113399;28;20363;-78
2021/12/01 01:00:05;;;;;;;25.52;12.52;;;;;;;;;;5111809;28;20146;-78
2021/12/01 01:02:31;;;;;;;26.08;13.00;;;;;;;;;;5091419;28;20502;-78
2021/12/01 01:04:57;;;;;;;30.50;12.57;;;;;;;;;;5102543;28;20040;-83
2021/12/01 01:07:23;;;;;;;25.40;11.93;;;;;;;;;;5111856;28;20442;-82
2021/12/01 01:09:49;;;;;;;25.52;11.63;;;;;;;;;;5111038;28;20055;-77
2021/12/01 01:17:52;;;;;;;12.82;6.47;;;;;;;;;;5111532;28;20130;-83
2021/12/01 01:20:18;;;;;;;17.60;7.60;;;;;;;;;;5095497;28;20047;-82
2021/12/01 01:22:44;;;;;;;15.00;6.00;;;;;;;;;;5111246;28;20040;-82
2021/12/01 01:25:11;;;;;;;11.20;3.58;;;;;;;;;;5111498;28;20132;-78
2021/12/01 01:27:37;;;;;;;10.65;3.72;;;;;;;;;;5111590;28;20082;-78
2021/12/01 01:30:04;;;;;;;4.72;1.80;;;;;;;;;;5111694;28;20447;-79
2021/12/01 01:32:32;;;;;;;7.15;2.45;;;;;;;;;;5110782;28;20044;-78
2021/12/01 01:34:58;;;;;;;7.78;3.08;;;;;;;;;;5110954;28;20094;-78
2021/12/01 01:37:24;;;;;;;10.38;3.30;;;;;;;;;;5110931;28;20414;-78
2021/12/01 01:39:50;;;;;;;7.93;3.35;;;;;;;;;;5110701;28;20100;-78
2021/12/01 01:42:17;;;;;;;9.10;3.50;;;;;;;;;;5110296;28;20438;-79
2021/12/01 01:44:43;;;;;;;9.30;3.50;;;;;;;;;;5111000;28;20050;-79
2021/12/01 01:47:09;;;;;;;9.13;3.10;;;;;;;;;;5111059;28;20085;-84
2021/12/01 01:52:10;;;;;;;9.18;3.00;;;;;;;;;;5111508;28;20407;-85
2021/12/01 01:54:36;;;;;;;7.00;2.67;;;;;;;;;;5110346;28;20130;-85
2021/12/01 01:57:02;;;;;;;8.57;2.70;;;;;;;;;;5079404;28;20040;-84
2021/12/01 01:59:28;;;;;;;5.88;2.50;;;;;;;;;;5110485;28;20078;-83
2021/12/01 02:01:56;;;;;;;7.80;2.88;;;;;;;;;;5093410;28;20058;-84
2021/12/01 02:04:23;;;;;;;6.15;3.00;;;;;;;;;;5109924;28;20048;-84
2021/12/01 02:06:49;;;;;;;7.43;3.10;;;;;;;;;;5110785;28;20036;-84
2021/12/01 02:09:19;;;;;;;5.32;3.05;;;;;;;;;;5109885;28;20047;-83
2021/12/01 02:11:45;;;;;;;7.32;3.20;;;;;;;;;;5110089;28;20043;-82
2021/12/01 02:14:12;;;;;;;7.35;3.20;;;;;;;;;;5110824;28;20563;-82
2021/12/01 02:16:38;;;;;;;5.05;2.72;;;;;;;;;;5109851;28;20035;-83
2021/12/01 02:19:05;;;;;;;3.95;2.30;;;;;;;;;;5110888;28;20406;-84
2021/12/01 02:21:31;;;;;;;3.75;2.10;;;;;;;;;;5109877;28;20538;-83
2021/12/01 02:23:57;;;;;;;6.10;2.00;;;;;;;;;;5110121;28;20035;-82
2021/12/01 02:26:24;;;;;;;4.72;2.35;;;;;;;;;;5109281;28;20035;-81
2021/12/01 02:28:52;;;;;;;9.30;2.03;;;;;;;;;;5085641;28;20407;-84
2021/12/01 02:31:19;;;;;;;11.45;2.00;;;;;;;;;;5103438;28;20040;-83
2021/12/01 02:33:45;;;;;;;8.48;2.38;;;;;;;;;;5110274;28;20419;-83
2021/12/01 02:36:12;;;;;;;10.20;2.28;;;;;;;;;;5111330;28;20043;-82
2021/12/01 02:38:40;;;;;;;11.35;2.20;;;;;;;;;;5109482;28;20035;-77
2021/12/01 02:41:06;;;;;;;9.35;2.08;;;;;;;;;;5109846;28;20081;-77
2021/12/01 02:43:33;;;;;;;12.15;1.98;;;;;;;;;;5075640;28;20036;-77
2021/12/01 02:45:59;;;;;;;10.00;2.05;;;;;;;;;;5109954;28;20490;-75
2021/12/01 02:48:26;;;;;;;15.60;2.70;;;;;;;;;;5109110;28;20035;-77
2021/12/01 02:50:53;;;;;;;13.15;2.30;;;;;;;;;;5109615;28;20066;-83
2021/12/01 02:53:23;;;;;;;9.85;2.33;;;;;;;;;;5109256;28;20044;-82
2021/12/01 02:55:53;;;;;;;11.20;2.17;;;;;;;;;;5109514;28;20513;-83
2021/12/01 02:58:20;;;;;;;7.78;2.58;;;;;;;;;;5109247;28;20123;-81
2021/12/01 03:00:47;;;;;;;5.55;2.03;;;;;;;;;;5090875;28;20051;-83
2021/12/01 03:03:13;;;;;;;11.00;2.05;;;;;;;;;;5097872;28;20043;-80
2021/12/01 03:05:40;;;;;;;10.25;2.08;;;;;;;;;;5093343;28;20044;-82
2021/12/01 03:08:07;;;;;;;12.45;1.73;;;;;;;;;;5106941;28;20043;-83
2021/12/01 03:10:34;;;;;;;13.43;2.03;;;;;;;;;;5108479;28;20060;-83
2021/12/01 03:13:00;;;;;;;15.20;1.90;;;;;;;;;;5108867;28;20133;-82
2021/12/01 03:15:26;;;;;;;17.90;1.88;;;;;;;;;;5107908;28;20482;-83
2021/12/01 03:17:52;;;;;;;13.30;1.80;;;;;;;;;;5109710;28;20110;-84
2021/12/01 03:20:22;;;;;;;13.73;2.10;;;;;;;;;;5092194;28;20407;-83
2021/12/01 03:22:48;;;;;;;15.90;2.15;;;;;;;;;;5108405;28;20141;-83
2021/12/01 03:25:15;;;;;;;13.80;2.42;;;;;;;;;;5102936;28;20044;-79
2021/12/01 03:27:42;;;;;;;14.77;2.15;;;;;;;;;;5100715;28;20407;-78
2021/12/01 03:30:09;;;;;;;11.35;2.15;;;;;;;;;;5108539;28;20119;-77
2021/12/01 03:32:35;;;;;;;17.67;2.45;;;;;;;;;;5108434;28;20439;-82
2021/12/01 03:35:04;;;;;;;12.52;2.88;;;;;;;;;;5105760;28;20050;-83
2021/12/01 03:37:30;;;;;;;11.32;2.00;;;;;;;;;;5108572;28;20678;-77
2021/12/01 03:39:58;;;;;;;15.48;2.20;;;;;;;;;;5109876;28;20444;-78
2021/12/01 03:42:25;;;;;;;10.70;2.40;;;;;;;;;;5108179;28;20476;-78
2021/12/01 03:44:51;;;;;;;13.90;2.28;;;;;;;;;;5091474;28;20036;-76
2021/12/01 03:47:17;;;;;;;13.00;1.90;;;;;;;;;;5091968;28;20061;-78
2021/12/01 03:49:43;;;;;;;9.82;1.85;;;;;;;;;;5108065;28;20040;-83
2021/12/01 03:52:14;;;;;;;13.57;2.03;;;;;;;;;;5108316;28;20181;-83
2021/12/01 03:54:40;;;;;;;10.98;2.10;;;;;;;;;;5091135;28;20044;-83
2021/12/01 03:57:06;;;;;;;14.32;2.03;;;;;;;;;;5108585;28;20055;-78
2021/12/01 03:59:33;;;;;;;9.48;2.60;;;;;;;;;;5108046;28;20410;-82
2021/12/01 04:01:59;;;;;;;13.55;2.83;;;;;;;;;;5091096;28;20036;-78
2021/12/01 04:04:25;;;;;;;11.68;2.70;;;;;;;;;;5108330;28;20498;-78
2021/12/01 04:06:51;;;;;;;6.00;2.78;;;;;;;;;;5108455;28;20413;-83
2021/12/01 04:09:17;;;;;;;8.45;3.45;;;;;;;;;;5109033;28;20063;-82
2021/12/01 04:11:43;;;;;;;5.60;3.03;;;;;;;;;;5077251;28;20040;-83
2021/12/01 04:14:09;;;;;;;5.57;3.17;;;;;;;;;;5100834;28;20055;-83
2021/12/01 04:16:35;;;;;;;6.28;3.22;;;;;;;;;;5118539;28;20046;-82
2021/12/01 04:19:01;;;;;;;5.40;3.00;;;;;;;;;;5088113;28;20036;-82
2021/12/01 04:21:28;;;;;;;7.35;4.22;;;;;;;;;;5082135;28;20048;-78
2021/12/01 04:23:55;;;;;;;7.00;3.47;;;;;;;;;;5104392;28;20036;-78
2021/12/01 04:26:24;;;;;;;6.25;3.35;;;;;;;;;;5122354;27;20044;-79
2021/12/01 04:28:51;;;;;;;5.72;3.20;;;;;;;;;;5108448;28;20395;-78
2021/12/01 04:31:17;;;;;;;6.15;3.15;;;;;;;;;;5112219;28;20043;-76
2021/12/01 04:33:43;;;;;;;7.35;3.25;;;;;;;;;;5094875;28;20070;-84
2021/12/01 04:36:09;;;;;;;6.20;3.20;;;;;;;;;;5113056;28;20501;-79
2021/12/01 04:38:36;;;;;;;5.00;2.72;;;;;;;;;;5111497;28;20039;-79
2021/12/01 04:41:02;;;;;;;5.00;2.63;;;;;;;;;;5112030;28;20067;-76
2021/12/01 04:43:28;;;;;;;4.53;2.75;;;;;;;;;;5111679;28;20047;-75
2021/12/01 04:45:59;;;;;;;5.22;2.55;;;;;;;;;;5094467;28;20403;-78
2021/12/01 04:48:29;;;;;;;4.43;2.80;;;;;;;;;;5094624;28;20439;-78
2021/12/01 04:50:55;;;;;;;4.55;2.30;;;;;;;;;;5111561;28;20046;-83
2021/12/01 04:53:22;;;;;;;3.65;2.22;;;;;;;;;;5108088;28;20048;-82
2021/12/01 04:55:48;;;;;;;3.50;2.15;;;;;;;;;;5087980;28;20044;-82
2021/12/01 04:58:14;;;;;;;3.78;2.13;;;;;;;;;;5111314;28;20046;-81
2021/12/01 05:00:40;;;;;;;3.63;2.38;;;;;;;;;;5093005;28;20035;-78
2021/12/01 05:03:06;;;;;;;3.72;2.28;;;;;;;;;;5109210;28;20031;-76
2021/12/01 05:05:33;;;;;;;4.53;2.58;;;;;;;;;;5092850;28;20051;-79
2021/12/01 05:07:59;;;;;;;6.47;3.10;;;;;;;;;;5110284;28;20526;-80
2021/12/01 05:10:25;;;;;;;5.18;2.95;;;;;;;;;;5110410;28;20047;-82
2021/12/01 05:12:51;;;;;;;7.13;3.20;;;;;;;;;;5094096;28;20056;-76
2021/12/01 05:15:17;;;;;;;5.70;3.25;;;;;;;;;;5110151;28;20043;-84
2021/12/01 05:17:43;;;;;;;6.82;3.53;;;;;;;;;;5094388;28;20104;-76
2021/12/01 05:20:11;;;;;;;5.22;3.00;;;;;;;;;;5110751;28;20043;-81
2021/12/01 05:22:38;;;;;;;7.18;3.80;;;;;;;;;;5110687;28;20173;-83
2021/12/01 05:25:05;;;;;;;7.32;3.50;;;;;;;;;;5110488;28;20035;-76
2021/12/01 05:27:31;;;;;;;6.45;4.00;;;;;;;;;;5107812;27;20492;-76
2021/12/01 05:29:57;;;;;;;6.43;3.97;;;;;;;;;;5087420;28;20032;-77
2021/12/01 05:32:24;;;;;;;8.85;4.10;;;;;;;;;;5093293;28;20059;-75
2021/12/01 05:34:50;;;;;;;8.13;4.03;;;;;;;;;;5110381;28;20043;-76
2021/12/01 05:37:17;;;;;;;7.07;3.47;;;;;;;;;;5109786;28;20341;-77
2021/12/01 05:39:45;;;;;;;5.18;3.15;;;;;;;;;;5109946;28;20456;-76
2021/12/01 05:42:12;;;;;;;4.90;3.03;;;;;;;;;;5110117;28;20449;-73
2021/12/01 05:44:39;;;;;;;5.70;3.13;;;;;;;;;;5093430;28;20092;-83
2021/12/01 05:47:05;;;;;;;4.45;2.67;;;;;;;;;;5093827;28;20494;-81
2021/12/01 05:49:32;;;;;;;5.85;3.22;;;;;;;;;;5110472;28;20036;-82
2021/12/01 05:51:58;;;;;;;6.68;3.10;;;;;;;;;;5110388;28;20050;-76
2021/12/01 05:54:24;;;;;;;4.45;2.50;;;;;;;;;;5110566;28;20050;-81
2021/12/01 05:56:51;;;;;;;5.80;2.90;;;;;;;;;;5110652;28;20104;-75
2021/12/01 05:59:17;;;;;;;5.63;2.92;;;;;;;;;;5110878;28;20078;-82
2021/12/01 06:01:43;;;;;;;4.70;2.78;;;;;;;;;;5110144;28;20517;-82
2021/12/01 06:04:09;;;;;;;3.80;2.53;;;;;;;;;;5093329;28;20036;-74
2021/12/01 06:06:35;;;;;;;4.65;2.60;;;;;;;;;;5109977;28;20039;-82
2021/12/01 06:09:01;;;;;;;5.03;2.78;;;;;;;;;;5100119;28;20527;-81
2021/12/01 06:11:28;;;;;;;4.50;2.95;;;;;;;;;;5088891;28;20107;-81
2021/12/01 06:13:54;;;;;;;4.05;2.65;;;;;;;;;;5093419;28;20032;-81
2021/12/01 06:16:23;;;;;;;5.22;2.63;;;;;;;;;;5093012;28;20088;-73
2021/12/01 06:18:50;;;;;;;4.70;3.40;;;;;;;;;;5110505;28;20372;-75
2021/12/01 06:21:16;;;;;;;5.00;3.53;;;;;;;;;;5110106;28;20043;-80
2021/12/01 06:23:42;;;;;;;4.57;3.10;;;;;;;;;;5109504;28;20035;-80
2021/12/01 06:26:09;;;;;;;5.05;3.35;;;;;;;;;;5110060;28;20535;-81
2021/12/01 06:28:35;;;;;;;4.85;3.15;;;;;;;;;;5109962;28;20042;-80
2021/12/01 06:31:01;;;;;;;5.47;3.65;;;;;;;;;;5109665;28;20035;-80
2021/12/01 06:33:27;;;;;;;5.55;3.63;;;;;;;;;;5109582;28;20733;-80
2021/12/01 06:35:53;;;;;;;5.80;3.78;;;;;;;;;;5110068;28;20382;-80
2021/12/01 06:38:20;;;;;;;5.40;3.60;;;;;;;;;;5109662;28;20040;-77
2021/12/01 06:40:47;;;;;;;5.35;3.17;;;;;;;;;;5106180;28;20039;-73
2021/12/01 06:43:13;;;;;;;5.65;3.67;;;;;;;;;;5100978;28;20050;-74
2021/12/01 06:45:39;;;;;;;5.43;3.78;;;;;;;;;;5109619;28;20093;-77
2021/12/01 06:48:06;;;;;;;5.57;3.45;;;;;;;;;;5109209;28;20043;-74
2021/12/01 06:50:32;;;;;;;5.50;3.47;;;;;;;;;;5092391;28;20039;-76
2021/12/01 06:52:58;;;;;;;5.47;3.53;;;;;;;;;;5108958;28;20039;-74
2021/12/01 06:55:24;;;;;;;6.72;3.60;;;;;;;;;;5110674;28;20042;-76
2021/12/01 06:57:50;;;;;;;5.35;3.60;;;;;;;;;;5109586;28;20051;-80
2021/12/01 07:00:18;;;;;;;6.63;3.90;;;;;;;;;;5109086;28;20152;-76
2021/12/01 07:02:44;;;;;;;5.80;3.63;;;;;;;;;;5109046;28;20091;-76
2021/12/01 07:05:11;;;;;;;7.22;3.95;;;;;;;;;;5092138;28;20042;-75
2021/12/01 07:07:37;;;;;;;5.90;3.78;;;;;;;;;;5108959;28;20031;-76
2021/12/01 07:10:05;;;;;;;7.50;4.40;;;;;;;;;;5109223;28;20044;-77
2021/12/01 07:12:31;;;;;;;8.40;5.07;;;;;;;;;;5109391;28;20502;-77
2021/12/01 07:14:57;;;;;;;7.88;4.72;;;;;;;;;;5105574;28;20058;-78
2021/12/01 07:17:23;;;;;;;7.82;4.78;;;;;;;;;;5097635;28;20039;-77
2021/12/01 07:19:49;;;;;;;8.30;5.28;;;;;;;;;;5091195;28;20039;-80
2021/12/01 07:22:16;;;;;;;8.35;4.90;;;;;;;;;;5095203;28;20051;-77
2021/12/01 07:24:42;;;;;;;7.47;4.88;;;;;;;;;;5109115;28;20506;-78
2021/12/01 07:27:08;;;;;;;8.40;4.68;;;;;;;;;;5109151;28;20394;-80
2021/12/01 07:29:35;;;;;;;6.93;4.63;;;;;;;;;;5108448;28;20113;-75
2021/12/01 07:32:01;;;;;;;8.90;4.55;;;;;;;;;;5109895;28;20051;-75
2021/12/01 07:34:27;;;;;;;8.10;5.03;;;;;;;;;;5108569;28;20089;-77
2021/12/01 07:36:54;;;;;;;7.70;4.85;;;;;;;;;;5091691;28;20071;-80
2021/12/01 07:39:20;;;;;;;8.45;5.13;;;;;;;;;;5108567;28;20145;-77
2021/12/01 07:41:47;;;;;;;9.05;5.50;;;;;;;;;;5108489;28;20044;-80
2021/12/01 07:44:13;;;;;;;9.38;5.80;;;;;;;;;;5108479;28;20039;-75
2021/12/01 07:46:39;;;;;;;9.73;5.90;;;;;;;;;;5108322;28;20040;-77
2021/12/01 07:49:06;;;;;;;9.85;5.65;;;;;;;;;;5108524;28;20051;-76
2021/12/01 07:51:32;;;;;;;8.95;5.65;;;;;;;;;;5109435;28;20040;-77
2021/12/01 07:53:58;;;;;;;8.43;5.30;;;;;;;;;;5108680;28;20074;-76
2021/12/01 07:56:24;;;;;;;10.68;5.72;;;;;;;;;;5107737;28;20122;-80
2021/12/01 07:58:51;;;;;;;7.55;5.00;;;;;;;;;;5091594;28;20165;-76
2021/12/01 08:01:17;;;;;;;10.05;5.13;;;;;;;;;;5107524;28;20083;-77
2021/12/01 08:03:43;;;;;;;7.13;4.70;;;;;;;;;;5109481;28;20039;-74
2021/12/01 08:06:09;;;;;;;8.80;4.82;;;;;;;;;;5108467;28;20039;-81
2021/12/01 08:08:35;;;;;;;9.27;4.57;;;;;;;;;;5108112;28;20070;-81
2021/12/01 08:11:01;;;;;;;9.00;5.20;;;;;;;;;;5108151;28;20044;-80
2021/12/01 08:13:27;;;;;;;8.90;5.05;;;;;;;;;;5091248;28;20501;-81
2021/12/01 08:15:53;;;;;;;7.50;4.15;;;;;;;;;;5105251;28;20044;-75
2021/12/01 08:18:19;;;;;;;6.57;3.50;;;;;;;;;;5105280;28;20135;-80
2021/12/01 08:20:46;;;;;;;7.20;3.10;;;;;;;;;;5109225;28;20043;-78
2021/12/01 08:23:12;;;;;;;7.10;2.92;;;;;;;;;;5107721;28;20043;-77
2021/12/01 08:25:38;;;;;;;5.93;2.22;;;;;;;;;;5091092;28;20036;-76
2021/12/01 08:28:04;;;;;;;6.70;2.25;;;;;;;;;;5109337;28;20044;-81
2021/12/01 08:30:31;;;;;;;7.28;2.03;;;;;;;;;;5107730;28;20067;-80
2021/12/01 08:32:57;;;;;;;11.07;2.33;;;;;;;;;;5108437;28;20578;-80
2021/12/01 08:35:24;;;;;;;11.98;2.03;;;;;;;;;;5091222;28;20031;-80
2021/12/01 08:37:51;;;;;;;11.48;1.90;;;;;;;;;;5091052;28;20337;-76
2021/12/01 08:40:18;;;;;;;11.27;1.73;;;;;;;;;;5107636;28;20134;-80
2021/12/01 08:42:45;;;;;;;9.20;1.80;;;;;;;;;;5090725;28;20044;-80
2021/12/01 08:45:11;;;;;;;9.07;1.85;;;;;;;;;;5091398;28;20552;-81
2021/12/01 08:47:37;;;;;;;9.93;1.92;;;;;;;;;;5093175;28;20119;-80
2021/12/01 08:50:05;;;;;;;11.10;2.40;;;;;;;;;;5108141;28;20063;-79
2021/12/01 08:52:31;;;;;;;14.00;2.20;;;;;;;;;;5107883;28;20101;-79
2021/12/01 08:54:57;;;;;;;6.15;1.73;;;;;;;;;;5091199;28;20096;-80
2021/12/01 08:57:24;;;;;;;11.02;1.63;;;;;;;;;;5108542;28;20042;-80
2021/12/01 08:59:50;;;;;;;8.43;1.50;;;;;;;;;;5107737;28;20054;-77
2021/12/01 09:02:17;;;;;;;8.55;1.33;;;;;;;;;;5107757;28;20036;-80
2021/12/01 09:04:44;;;;;;;7.28;1.42;;;;;;;;;;5107219;28;20035;-81
2021/12/01 09:07:11;;;;;;;7.82;1.95;;;;;;;;;;5107897;28;20547;-81
2021/12/01 09:09:37;;;;;;;15.60;1.63;;;;;;;;;;5107742;28;20047;-81
2021/12/01 09:12:04;;;;;;;6.55;1.73;;;;;;;;;;5107911;28;20036;-80
2021/12/01 09:14:30;;;;;;;9.82;1.60;;;;;;;;;;5110440;28;20108;-79
2021/12/01 09:16:56;;;;;;;7.40;1.83;;;;;;;;;;5093916;28;20043;-80
2021/12/01 09:19:23;;;;;;;10.50;1.60;;;;;;;;;;5094543;28;20039;-80
2021/12/01 09:21:49;;;;;;;10.27;1.40;;;;;;;;;;5111124;28;20032;-79
2021/12/01 09:24:16;;;;;;;9.73;1.13;;;;;;;;;;5094421;28;20047;-76
2021/12/01 09:26:42;;;;;;;11.05;1.85;;;;;;;;;;5110781;28;20408;-77
2021/12/01 09:29:08;;;;;;;8.40;1.25;;;;;;;;;;5110955;28;20036;-79
2021/12/01 09:31:34;;;;;;;6.78;1.00;;;;;;;;;;5111084;28;20498;-79
2021/12/01 09:34:01;;;;;;;6.70;1.33;;;;;;;;;;5094043;28;20036;-77
2021/12/01 09:36:27;;;;;;;9.52;1.35;;;;;;;;;;5093575;28;20040;-77
2021/12/01 09:38:53;;;;;;;8.80;1.40;;;;;;;;;;5111264;28;20119;-75
2021/12/01 09:41:19;;;;;;;11.07;1.65;;;;;;;;;;5094028;28;20092;-80
2021/12/01 09:43:45;;;;;;;9.05;1.10;;;;;;;;;;5093295;28;20113;-80
2021/12/01 09:46:12;;;;;;;8.50;1.45;;;;;;;;;;5110548;28;20043;-80
2021/12/01 09:48:39;;;;;;;8.57;1.48;;;;;;;;;;5093165;28;20040;-76
2021/12/01 09:51:06;;;;;;;10.52;1.30;;;;;;;;;;5112122;28;20051;-80
2021/12/01 09:53:32;;;;;;;10.43;1.30;;;;;;;;;;5110207;28;20052;-81
2021/12/01 09:55:58;;;;;;;9.48;1.40;;;;;;;;;;5096615;28;20044;-77
2021/12/01 09:58:30;;;;;;;12.25;1.95;;;;;;;;;;5110274;28;20053;-79
2021/12/01 10:00:58;;;;;;;12.48;2.05;;;;;;;;;;5093645;28;20046;-77
2021/12/01 10:03:24;;;;;;;9.95;1.48;;;;;;;;;;5109505;28;20040;-76
2021/12/01 10:06:02;;;;;;;11.55;1.90;;;;;;;;;;5098503;28;20036;-77
2021/12/01 10:08:34;;;;;;;13.30;1.30;;;;;;;;;;5109141;28;20391;-76
2021/12/01 10:11:03;;;;;;;7.60;1.38;;;;;;;;;;5109916;28;20102;-76
2021/12/01 10:13:31;;;;;;;7.32;1.20;;;;;;;;;;5109377;28;20070;-76
2021/12/01 10:15:58;;;;;;;11.30;1.55;;;;;;;;;;5110659;28;20554;-76
2021/12/01 10:18:25;;;;;;;10.68;1.58;;;;;;;;;;5110953;28;20501;-76
2021/12/01 10:21:18;;;;;;;11.20;1.30;;;;;;;;;;5110084;28;20045;-75
2021/12/01 10:23:49;;;;;;;10.88;1.65;;;;;;;;;;5085904;28;20135;-77
2021/12/01 10:26:15;;;;;;;11.90;1.40;;;;;;;;;;5102062;28;20079;-76
2021/12/01 10:28:43;;;;;;;7.05;1.02;;;;;;;;;;5109584;28;20514;-76
2021/12/01 10:31:10;;;;;;;8.02;1.35;;;;;;;;;;5109616;28;20039;-75
2021/12/01 10:33:36;;;;;;;12.32;1.98;;;;;;;;;;5092215;28;20047;-76
2021/12/01 10:36:04;;;;;;;10.32;1.55;;;;;;;;;;5092975;28;20071;-79
2021/12/01 10:38:35;;;;;;;10.88;1.70;;;;;;;;;;5092007;28;20040;-80
2021/12/01 10:41:02;;;;;;;13.77;1.52;;;;;;;;;;5110262;28;20043;-79
2021/12/01 10:43:35;;;;;;;8.32;1.30;;;;;;;;;;5108785;28;20040;-81
2021/12/01 10:46:06;;;;;;;8.10;1.48;;;;;;;;;;5109591;28;20046;-80
2021/12/01 10:48:32;;;;;;;9.52;2.35;;;;;;;;;;5109080;28;20066;-80
2021/12/01 10:50:59;;;;;;;9.95;1.40;;;;;;;;;;5092816;28;20487;-79
2021/12/01 10:53:26;;;;;;;12.65;1.50;;;;;;;;;;5109593;28;20046;-80
2021/12/01 10:56:00;;;;;;;10.07;1.63;;;;;;;;;;5092941;28;20039;-80
2021/12/01 10:58:32;;;;;;;16.17;3.15;;;;;;;;;;5095746;28;20044;-80
2021/12/01 11:01:00;;;;;;;12.63;1.98;;;;;;;;;;5092884;28;20525;-80
2021/12/01 11:03:30;;;;;;;14.23;1.80;;;;;;;;;;5108954;28;20050;-80
2021/12/01 11:05:59;;;;;;;20.40;2.55;;;;;;;;;;5092666;28;20036;-80
2021/12/01 11:08:26;;;;;;;11.65;1.85;;;;;;;;;;5108952;28;20043;-79
2021/12/01 11:10:53;;;;;;;15.52;2.30;;;;;;;;;;5092194;28;20055;-80
2021/12/01 11:13:19;;;;;;;13.40;1.90;;;;;;;;;;5109141;28;20043;-80
2021/12/01 11:15:50;;;;;;;14.90;2.15;;;;;;;;;;5109084;28;20039;-79
2021/12/01 11:18:18;;;;;;;16.60;2.30;;;;;;;;;;5108836;28;20046;-79
2021/12/01 11:20:54;;;;;;;14.93;2.63;;;;;;;;;;5108681;28;20039;-80
2021/12/01 11:23:23;;;;;;;12.50;2.40;;;;;;;;;;5108412;28;20035;-79
2021/12/01 11:26:07;;;;;;;17.80;2.33;;;;;;;;;;5108922;28;20067;-80
2021/12/01 11:28:35;;;;;;;16.95;2.42;;;;;;;;;;5091508;28;20519;-80
2021/12/01 11:31:03;;;;;;;14.27;2.25;;;;;;;;;;5109328;28;20549;-80
2021/12/01 11:33:30;;;;;;;21.90;2.60;;;;;;;;;;5108234;28;20035;-79
2021/12/01 11:36:01;;;;;;;14.27;2.33;;;;;;;;;;5109034;28;20047;-79
2021/12/01 11:38:28;;;;;;;18.02;2.40;;;;;;;;;;5107573;28;20093;-79
2021/12/01 11:40:56;;;;;;;14.32;2.38;;;;;;;;;;5109271;28;20530;-80
2021/12/01 11:43:23;;;;;;;14.05;2.33;;;;;;;;;;5108596;28;20048;-79
2021/12/01 11:45:49;;;;;;;15.07;2.45;;;;;;;;;;5108633;28;20039;-79
2021/12/01 11:48:17;;;;;;;12.70;2.33;;;;;;;;;;5108919;28;20100;-81
2021/12/01 11:50:49;;;;;;;18.20;2.97;;;;;;;;;;5107996;28;20043;-80
2021/12/01 11:53:20;;;;;;;13.52;2.40;;;;;;;;;;5078368;28;20134;-80
2021/12/01 11:55:52;;;;;;;18.20;3.80;;;;;;;;;;5091319;28;20122;-80
2021/12/01 11:58:37;;;;;;;18.60;2.85;;;;;;;;;;5108849;28;20047;-77
2021/12/01 12:01:03;;;;;;;19.27;2.22;;;;;;;;;;5094649;28;20389;-80
2021/12/01 12:03:29;;;;;;;13.15;2.08;;;;;;;;;;5107911;28;20039;-80
2021/12/01 12:06:18;;;;;;;12.75;2.10;;;;;;;;;;5108431;28;20043;-76
2021/12/01 12:08:54;;;;;;;16.58;2.45;;;;;;;;;;5081949;28;20526;-78
2021/12/01 12:11:34;;;;;;;18.17;4.75;;;;;;;;;;5103568;28;20044;-76
2021/12/01 12:14:01;;;;;;;15.55;2.90;;;;;;;;;;5108174;28;20039;-79
2021/12/01 12:16:27;;;;;;;19.40;2.30;;;;;;;;;;5091885;28;20547;-80
2021/12/01 12:18:53;;;;;;;18.20;2.45;;;;;;;;;;5091308;28;20114;-77
2021/12/01 12:21:37;;;;;;;15.90;2.45;;;;;;;;;;5091622;28;20090;-81
2021/12/01 12:24:09;;;;;;;17.63;2.30;;;;;;;;;;5108406;28;20411;-80
2021/12/01 12:26:37;;;;;;;34.72;3.00;;;;;;;;;;5108093;28;20059;-80
2021/12/01 12:29:08;;;;;;;14.40;2.42;;;;;;;;;;5108701;28;20122;-76
2021/12/01 12:31:35;;;;;;;16.92;2.70;;;;;;;;;;5107990;28;20060;-78
2021/12/01 12:34:04;;;;;;;11.90;2.03;;;;;;;;;;5108045;28;20142;-76
2021/12/01 12:36:36;;;;;;;11.18;2.08;;;;;;;;;;5107869;28;20043;-77
2021/12/01 12:39:08;;;;;;;21.20;2.40;;;;;;;;;;5107827;28;20662;-78
2021/12/01 12:41:53;;;;;;;17.63;3.42;;;;;;;;;;5090209;28;20047;-80
2021/12/01 12:44:31;;;;;;;15.05;2.47;;;;;;;;;;5104944;28;20368;-77
2021/12/01 12:47:08;;;;;;;14.55;2.20;;;;;;;;;;5108478;28;20035;-76
2021/12/01 12:49:42;;;;;;;15.18;2.05;;;;;;;;;;5110896;28;20096;-78
2021/12/01 12:52:27;;;;;;;14.45;2.00;;;;;;;;;;5094985;28;20043;-78
2021/12/01 12:54:58;;;;;;;9.13;1.48;;;;;;;;;;5093866;28;20041;-77
2021/12/01 12:57:26;;;;;;;16.52;2.42;;;;;;;;;;5111681;28;20124;-77
2021/12/01 13:00:10;;;;;;;8.27;1.20;;;;;;;;;;5111832;28;20509;-76
2021/12/01 13:02:36;;;;;;;7.95;1.40;;;;;;;;;;5111372;28;20151;-79
2021/12/01 13:05:05;;;;;;;10.25;1.70;;;;;;;;;;5111770;28;20576;-78
2021/12/01 13:07:33;;;;;;;13.60;1.73;;;;;;;;;;5093934;28;20067;-78
2021/12/01 13:10:02;;;;;;;8.90;1.20;;;;;;;;;;5111115;28;20047;-76
2021/12/01 13:12:28;;;;;;;11.25;1.77;;;;;;;;;;5111274;28;20240;-77
2021/12/01 13:14:55;;;;;;;10.00;1.60;;;;;;;;;;5097123;28;20051;-77
2021/12/01 13:17:21;;;;;;;6.53;1.40;;;;;;;;;;5112840;28;20031;-76
2021/12/01 13:19:47;;;;;;;10.25;1.52;;;;;;;;;;5110418;28;20123;-78
2021/12/01 13:22:14;;;;;;;14.15;1.67;;;;;;;;;;5110903;28;20044;-78
2021/12/01 13:24:40;;;;;;;6.63;1.20;;;;;;;;;;5111142;28;20523;-78
2021/12/01 13:27:06;;;;;;;9.73;1.33;;;;;;;;;;5110989;27;20127;-77
2021/12/01 13:29:32;;;;;;;7.50;1.38;;;;;;;;;;5111038;28;20479;-77
2021/12/01 13:32:01;;;;;;;8.88;1.20;;;;;;;;;;5111269;28;20043;-77
2021/12/01 13:34:34;;;;;;;11.65;1.58;;;;;;;;;;5111764;28;20050;-76
2021/12/01 13:37:02;;;;;;;9.95;1.15;;;;;;;;;;5094735;28;20047;-77
2021/12/01 13:39:28;;;;;;;9.82;1.30;;;;;;;;;;5110910;28;20047;-81
2021/12/01 13:41:56;;;;;;;10.50;1.23;;;;;;;;;;5093497;28;20050;-80
2021/12/01 13:44:34;;;;;;;10.95;1.23;;;;;;;;;;5111168;28;20036;-81
2021/12/01 13:47:00;;;;;;;8.07;1.35;;;;;;;;;;5110899;28;20043;-79
2021/12/01 13:49:40;;;;;;;4.88;1.52;;;;;;;;;;5110860;28;20050;-82
2021/12/01 13:52:07;;;;;;;9.75;1.50;;;;;;;;;;5094085;28;20039;-80
2021/12/01 13:54:33;;;;;;;11.07;1.40;;;;;;;;;;5110826;28;20488;-79
2021/12/01 13:57:02;;;;;;;7.25;1.10;;;;;;;;;;5110472;28;20035;-79
2021/12/01 14:00:00;;;;;;;12.07;1.38;;;;;;;;;;5109674;28;20076;-79
2021/12/01 14:02:30;;;;;;;7.05;1.20;;;;;;;;;;5095064;28;20060;-79
2021/12/01 14:04:58;;;;;;;9.57;1.20;;;;;;;;;;5093330;28;20074;-79
2021/12/01 14:07:25;;;;;;;7.05;0.90;;;;;;;;;;5111033;28;20069;-81
2021/12/01 14:10:17;;;;;;;9.45;1.60;;;;;;;;;;5109549;28;20062;-77
2021/12/01 14:12:49;;;;;;;10.02;1.55;;;;;;;;;;5066580;28;20075;-79
2021/12/01 14:15:15;;;;;;;7.00;1.00;;;;;;;;;;5109713;28;20078;-81
2021/12/01 14:17:43;;;;;;;9.02;1.10;;;;;;;;;;5110246;28;20070;-79
2021/12/01 14:20:13;;;;;;;14.00;1.42;;;;;;;;;;5110634;28;20043;-79
2021/12/01 14:22:39;;;;;;;9.15;1.63;;;;;;;;;;5110203;28;20043;-81
2021/12/01 14:25:05;;;;;;;12.02;1.40;;;;;;;;;;5109989;28;20066;-79
2021/12/01 14:27:37;;;;;;;11.15;1.98;;;;;;;;;;5109801;28;20051;-81
2021/12/01 14:30:08;;;;;;;12.57;2.15;;;;;;;;;;5093049;28;20118;-81
2021/12/01 14:32:34;;;;;;;11.68;1.90;;;;;;;;;;5109552;28;20043;-79
2021/12/01 14:35:02;;;;;;;13.27;1.88;;;;;;;;;;5109739;28;20047;-79
2021/12/01 14:37:29;;;;;;;11.80;1.60;;;;;;;;;;5110209;28;20043;-80
2021/12/01 14:40:09;;;;;;;10.02;1.45;;;;;;;;;;5109279;28;20050;-78
2021/12/01 14:42:40;;;;;;;9.82;1.63;;;;;;;;;;5078367;28;20047;-78
2021/12/01 14:45:07;;;;;;;11.40;1.50;;;;;;;;;;5093135;28;20036;-80
2021/12/01 14:47:34;;;;;;;10.43;1.60;;;;;;;;;;5109413;28;20042;-82